Huvudsida
METAR-TAF:

METAR-TAF

Flygplatser :

Joplin Regional Airport

Joplin, Missouri, USA

latitud: 37-09-22N, longitud: 094-30-02W, höjd: 299 m

Aktuellt väderrapport

Denna rapport gjordes för 42 minuter sedan, klockan 09:53 UTC
Vind 3 kt från väst/sydväst
Temperatur -3°C
Fuktighet 68%
Tryck 1031 hPa
Sikt: 16.1 km
Klar himmel

METAR: KJLN 190953Z AUTO 25003KT 10SM CLR M03/M08 A3046 RMK AO2 SLP321 T10331078

Tid: 04:35 (10:35 UTC)

Väderprognos

Denna rapport gjordes för 5 timmar och 13 minuter sedan, klockan 05:22 UTC
Prognos gäller från 19 kl. 06 UTC till 20 kl. 06 UTC
Vind 5 kt från väst/nordväst
Sikt: 10 km
Klar himmel
Från 19 kl. 1100 UTC
Vind 5 kt från nordväst
Sikt: 10 km
Klar himmel
Från 19 kl. 1700 UTC
Vind 12 kt från nord/nordväst i byarna ända upp till 18 kt
Sikt: 10 km
Klar himmel
Från 19 kl. 2300 UTC
Vind 7 kt från nord
Sikt: 10 km
Klar himmel

TAF: KJLN 190522Z 1906/2006 29005KT P6SM SKC FM191100 32005KT P6SM SKC FM191700 33012G18KT P6SM SKC FM192300 35007KT P6SM SKC

Aktuella väderrapporter och prognoser från 4000 flygplatser (METAR- och TAF-rapporter).

De tillgängliga stationerna syns som gula och röda prickar på kartan.

För musen över prickarna för att se namnen på stationerna.

Klicka sedan för att få väderrapporter och prognoser.

För att ändra kartan: Klicka på de gröna knapparna med ett svart kors på för att zooma in; den gröna knappen med ett streck på för att zooma ut; eller på de gröna pilarna för angränsande kartor.


METAR-TAF: